sensor_id;sensor_type;location;lat;lon;timestamp;P1;durP1;ratioP1;P2;durP2;ratioP2
8466;SDS011;4270;48.148;11.648;2023-07-29T00:00:15;5.53;;;3.20;;
8466;SDS011;4270;48.148;11.648;2023-07-29T00:02:40;3.30;;;3.00;;
8466;SDS011;4270;48.148;11.648;2023-07-29T00:05:05;4.10;;;3.00;;
8466;SDS011;4270;48.148;11.648;2023-07-29T00:07:31;3.50;;;3.20;;
8466;SDS011;4270;48.148;11.648;2023-07-29T00:09:56;4.53;;;3.23;;
8466;SDS011;4270;48.148;11.648;2023-07-29T00:12:21;2.90;;;2.60;;
8466;SDS011;4270;48.148;11.648;2023-07-29T00:14:46;4.40;;;3.10;;
8466;SDS011;4270;48.148;11.648;2023-07-29T00:17:11;3.70;;;3.30;;
8466;SDS011;4270;48.148;11.648;2023-07-29T00:19:37;3.30;;;2.90;;
8466;SDS011;4270;48.148;11.648;2023-07-29T00:22:02;3.30;;;3.00;;
8466;SDS011;4270;48.148;11.648;2023-07-29T00:24:27;3.60;;;3.20;;
8466;SDS011;4270;48.148;11.648;2023-07-29T00:26:53;5.10;;;3.03;;
8466;SDS011;4270;48.148;11.648;2023-07-29T00:29:18;3.90;;;3.37;;
8466;SDS011;4270;48.148;11.648;2023-07-29T00:31:43;3.17;;;2.80;;
8466;SDS011;4270;48.148;11.648;2023-07-29T00:34:08;4.90;;;3.30;;
8466;SDS011;4270;48.148;11.648;2023-07-29T00:36:34;4.77;;;3.50;;
8466;SDS011;4270;48.148;11.648;2023-07-29T00:38:59;3.23;;;2.87;;
8466;SDS011;4270;48.148;11.648;2023-07-29T00:41:24;4.13;;;2.63;;
8466;SDS011;4270;48.148;11.648;2023-07-29T00:43:50;3.33;;;3.03;;
8466;SDS011;4270;48.148;11.648;2023-07-29T00:46:15;4.30;;;3.30;;
8466;SDS011;4270;48.148;11.648;2023-07-29T00:48:41;3.90;;;3.20;;
8466;SDS011;4270;48.148;11.648;2023-07-29T00:51:06;3.83;;;3.40;;
8466;SDS011;4270;48.148;11.648;2023-07-29T00:53:32;3.60;;;2.83;;
8466;SDS011;4270;48.148;11.648;2023-07-29T00:55:57;10.10;;;3.43;;
8466;SDS011;4270;48.148;11.648;2023-07-29T00:58:22;4.20;;;2.97;;
8466;SDS011;4270;48.148;11.648;2023-07-29T01:00:47;4.60;;;3.40;;
8466;SDS011;4270;48.148;11.648;2023-07-29T01:03:13;3.03;;;2.47;;
8466;SDS011;4270;48.148;11.648;2023-07-29T01:08:17;5.63;;;3.43;;
8466;SDS011;4270;48.148;11.648;2023-07-29T01:10:51;4.90;;;2.83;;
8466;SDS011;4270;48.148;11.648;2023-07-29T01:13:44;3.57;;;3.20;;
8466;SDS011;4270;48.148;11.648;2023-07-29T01:16:08;7.93;;;3.47;;
8466;SDS011;4270;48.148;11.648;2023-07-29T01:18:35;4.23;;;2.77;;
8466;SDS011;4270;48.148;11.648;2023-07-29T01:21:06;5.43;;;3.57;;
8466;SDS011;4270;48.148;11.648;2023-07-29T01:23:32;3.50;;;2.93;;
8466;SDS011;4270;48.148;11.648;2023-07-29T01:25:58;5.63;;;4.13;;
8466;SDS011;4270;48.148;11.648;2023-07-29T01:28:23;6.03;;;3.43;;
8466;SDS011;4270;48.148;11.648;2023-07-29T01:30:51;4.40;;;2.93;;
8466;SDS011;4270;48.148;11.648;2023-07-29T01:33:25;2.87;;;2.67;;
8466;SDS011;4270;48.148;11.648;2023-07-29T01:35:54;3.80;;;2.97;;
8466;SDS011;4270;48.148;11.648;2023-07-29T01:38:20;4.03;;;2.90;;
8466;SDS011;4270;48.148;11.648;2023-07-29T01:40:47;4.43;;;2.87;;
8466;SDS011;4270;48.148;11.648;2023-07-29T01:43:13;3.50;;;2.53;;
8466;SDS011;4270;48.148;11.648;2023-07-29T01:45:38;4.20;;;2.83;;
8466;SDS011;4270;48.148;11.648;2023-07-29T01:48:04;4.13;;;2.57;;
8466;SDS011;4270;48.148;11.648;2023-07-29T01:50:29;3.20;;;2.73;;
8466;SDS011;4270;48.148;11.648;2023-07-29T01:52:56;3.57;;;2.63;;
8466;SDS011;4270;48.148;11.648;2023-07-29T01:55:22;4.10;;;2.50;;
8466;SDS011;4270;48.148;11.648;2023-07-29T01:57:47;5.00;;;3.23;;
8466;SDS011;4270;48.148;11.648;2023-07-29T02:00:12;4.67;;;3.03;;
8466;SDS011;4270;48.148;11.648;2023-07-29T02:02:38;3.30;;;2.90;;
8466;SDS011;4270;48.148;11.648;2023-07-29T02:05:03;3.60;;;2.87;;
8466;SDS011;4270;48.148;11.648;2023-07-29T02:07:28;7.10;;;3.00;;
8466;SDS011;4270;48.148;11.648;2023-07-29T02:09:53;8.23;;;3.87;;
8466;SDS011;4270;48.148;11.648;2023-07-29T02:12:19;4.10;;;3.67;;
8466;SDS011;4270;48.148;11.648;2023-07-29T02:14:44;4.20;;;2.90;;
8466;SDS011;4270;48.148;11.648;2023-07-29T02:17:10;3.03;;;2.63;;
8466;SDS011;4270;48.148;11.648;2023-07-29T02:19:35;7.80;;;3.00;;
8466;SDS011;4270;48.148;11.648;2023-07-29T02:22:00;5.17;;;3.27;;
8466;SDS011;4270;48.148;11.648;2023-07-29T02:24:25;3.73;;;3.10;;
8466;SDS011;4270;48.148;11.648;2023-07-29T02:26:51;3.57;;;2.63;;
8466;SDS011;4270;48.148;11.648;2023-07-29T02:29:16;3.57;;;3.07;;
8466;SDS011;4270;48.148;11.648;2023-07-29T02:31:41;7.10;;;3.80;;
8466;SDS011;4270;48.148;11.648;2023-07-29T02:34:06;3.07;;;2.77;;
8466;SDS011;4270;48.148;11.648;2023-07-29T02:36:32;4.10;;;2.90;;
8466;SDS011;4270;48.148;11.648;2023-07-29T02:38:57;3.20;;;2.90;;
8466;SDS011;4270;48.148;11.648;2023-07-29T02:41:22;6.80;;;2.97;;
8466;SDS011;4270;48.148;11.648;2023-07-29T02:43:48;4.20;;;3.30;;
8466;SDS011;4270;48.148;11.648;2023-07-29T02:46:13;4.30;;;3.10;;
8466;SDS011;4270;48.148;11.648;2023-07-29T02:48:38;3.00;;;2.70;;
8466;SDS011;4270;48.148;11.648;2023-07-29T02:51:04;3.50;;;2.70;;
8466;SDS011;4270;48.148;11.648;2023-07-29T02:53:29;3.90;;;3.00;;
8466;SDS011;4270;48.148;11.648;2023-07-29T02:55:54;4.40;;;2.77;;
8466;SDS011;4270;48.148;11.648;2023-07-29T02:58:20;3.37;;;3.07;;
8466;SDS011;4270;48.148;11.648;2023-07-29T03:00:45;3.73;;;3.20;;
8466;SDS011;4270;48.148;11.648;2023-07-29T03:03:12;3.40;;;3.10;;
8466;SDS011;4270;48.148;11.648;2023-07-29T03:05:37;2.80;;;2.60;;
8466;SDS011;4270;48.148;11.648;2023-07-29T03:08:03;5.10;;;3.10;;
8466;SDS011;4270;48.148;11.648;2023-07-29T03:10:28;9.30;;;3.00;;
8466;SDS011;4270;48.148;11.648;2023-07-29T03:12:54;3.77;;;3.37;;
8466;SDS011;4270;48.148;11.648;2023-07-29T03:15:22;3.70;;;2.87;;
8466;SDS011;4270;48.148;11.648;2023-07-29T03:17:47;2.97;;;2.50;;
8466;SDS011;4270;48.148;11.648;2023-07-29T03:20:13;3.50;;;2.93;;
8466;SDS011;4270;48.148;11.648;2023-07-29T03:22:38;3.30;;;3.00;;
8466;SDS011;4270;48.148;11.648;2023-07-29T03:25:03;3.27;;;2.83;;
8466;SDS011;4270;48.148;11.648;2023-07-29T03:27:30;3.47;;;2.80;;
8466;SDS011;4270;48.148;11.648;2023-07-29T03:29:56;4.70;;;3.27;;
8466;SDS011;4270;48.148;11.648;2023-07-29T03:32:21;3.80;;;3.20;;
8466;SDS011;4270;48.148;11.648;2023-07-29T03:34:46;5.40;;;3.20;;
8466;SDS011;4270;48.148;11.648;2023-07-29T03:37:11;6.73;;;3.60;;
8466;SDS011;4270;48.148;11.648;2023-07-29T03:39:37;3.10;;;2.80;;
8466;SDS011;4270;48.148;11.648;2023-07-29T03:42:02;3.43;;;2.70;;
8466;SDS011;4270;48.148;11.648;2023-07-29T03:44:28;3.80;;;2.83;;
8466;SDS011;4270;48.148;11.648;2023-07-29T03:46:53;3.93;;;3.30;;
8466;SDS011;4270;48.148;11.648;2023-07-29T03:49:18;4.30;;;2.97;;
8466;SDS011;4270;48.148;11.648;2023-07-29T03:51:44;5.63;;;3.10;;
8466;SDS011;4270;48.148;11.648;2023-07-29T03:54:10;3.60;;;3.27;;
8466;SDS011;4270;48.148;11.648;2023-07-29T03:56:35;4.50;;;3.10;;
8466;SDS011;4270;48.148;11.648;2023-07-29T03:59:04;4.37;;;2.60;;
8466;SDS011;4270;48.148;11.648;2023-07-29T04:01:29;3.20;;;2.63;;
8466;SDS011;4270;48.148;11.648;2023-07-29T04:03:54;3.10;;;2.63;;
8466;SDS011;4270;48.148;11.648;2023-07-29T04:06:20;3.83;;;2.40;;
8466;SDS011;4270;48.148;11.648;2023-07-29T04:08:45;7.37;;;2.53;;
8466;SDS011;4270;48.148;11.648;2023-07-29T04:11:11;2.63;;;2.43;;
8466;SDS011;4270;48.148;11.648;2023-07-29T04:13:36;3.30;;;2.30;;
8466;SDS011;4270;48.148;11.648;2023-07-29T04:16:02;3.90;;;2.27;;
8466;SDS011;4270;48.148;11.648;2023-07-29T04:18:28;2.07;;;1.87;;
8466;SDS011;4270;48.148;11.648;2023-07-29T04:20:53;3.60;;;2.40;;
8466;SDS011;4270;48.148;11.648;2023-07-29T04:23:18;3.00;;;2.60;;
8466;SDS011;4270;48.148;11.648;2023-07-29T04:25:43;7.83;;;2.87;;
8466;SDS011;4270;48.148;11.648;2023-07-29T04:28:09;4.20;;;2.00;;
8466;SDS011;4270;48.148;11.648;2023-07-29T04:30:34;6.53;;;2.40;;
8466;SDS011;4270;48.148;11.648;2023-07-29T04:32:59;2.47;;;2.27;;
8466;SDS011;4270;48.148;11.648;2023-07-29T04:35:24;2.83;;;2.23;;
8466;SDS011;4270;48.148;11.648;2023-07-29T04:37:49;3.33;;;2.30;;
8466;SDS011;4270;48.148;11.648;2023-07-29T04:40:15;3.20;;;2.30;;
8466;SDS011;4270;48.148;11.648;2023-07-29T04:42:40;2.70;;;2.47;;
8466;SDS011;4270;48.148;11.648;2023-07-29T04:45:05;2.50;;;2.10;;
8466;SDS011;4270;48.148;11.648;2023-07-29T04:47:31;2.90;;;2.53;;
8466;SDS011;4270;48.148;11.648;2023-07-29T04:49:56;2.83;;;2.30;;
8466;SDS011;4270;48.148;11.648;2023-07-29T04:52:21;3.00;;;2.47;;
8466;SDS011;4270;48.148;11.648;2023-07-29T04:54:46;3.70;;;2.60;;
8466;SDS011;4270;48.148;11.648;2023-07-29T04:57:12;2.97;;;2.47;;
8466;SDS011;4270;48.148;11.648;2023-07-29T04:59:37;4.03;;;2.47;;
8466;SDS011;4270;48.148;11.648;2023-07-29T05:02:02;4.80;;;3.00;;
8466;SDS011;4270;48.148;11.648;2023-07-29T05:04:28;5.13;;;2.63;;
8466;SDS011;4270;48.148;11.648;2023-07-29T05:06:53;3.93;;;2.50;;
8466;SDS011;4270;48.148;11.648;2023-07-29T05:09:18;4.17;;;2.53;;
8466;SDS011;4270;48.148;11.648;2023-07-29T05:11:45;5.50;;;2.70;;
8466;SDS011;4270;48.148;11.648;2023-07-29T05:14:10;2.70;;;2.40;;
8466;SDS011;4270;48.148;11.648;2023-07-29T05:16:36;2.73;;;2.10;;
8466;SDS011;4270;48.148;11.648;2023-07-29T05:19:01;2.97;;;2.17;;
8466;SDS011;4270;48.148;11.648;2023-07-29T05:21:26;2.70;;;2.40;;
8466;SDS011;4270;48.148;11.648;2023-07-29T05:23:51;3.20;;;2.10;;
8466;SDS011;4270;48.148;11.648;2023-07-29T05:26:17;2.53;;;2.20;;
8466;SDS011;4270;48.148;11.648;2023-07-29T05:28:42;3.83;;;2.10;;
8466;SDS011;4270;48.148;11.648;2023-07-29T05:31:07;2.80;;;2.20;;
8466;SDS011;4270;48.148;11.648;2023-07-29T05:33:32;2.47;;;2.27;;
8466;SDS011;4270;48.148;11.648;2023-07-29T05:35:58;3.30;;;2.30;;
8466;SDS011;4270;48.148;11.648;2023-07-29T05:38:23;3.50;;;2.20;;
8466;SDS011;4270;48.148;11.648;2023-07-29T05:40:48;4.17;;;2.07;;
8466;SDS011;4270;48.148;11.648;2023-07-29T05:43:14;4.60;;;2.17;;
8466;SDS011;4270;48.148;11.648;2023-07-29T05:45:39;2.70;;;1.73;;
8466;SDS011;4270;48.148;11.648;2023-07-29T05:48:05;2.27;;;2.07;;
8466;SDS011;4270;48.148;11.648;2023-07-29T05:50:30;2.30;;;2.10;;
8466;SDS011;4270;48.148;11.648;2023-07-29T05:52:55;2.33;;;2.10;;
8466;SDS011;4270;48.148;11.648;2023-07-29T05:55:20;3.30;;;2.10;;
8466;SDS011;4270;48.148;11.648;2023-07-29T05:57:45;2.23;;;2.03;;
8466;SDS011;4270;48.148;11.648;2023-07-29T06:00:11;4.57;;;2.03;;
8466;SDS011;4270;48.148;11.648;2023-07-29T06:02:36;2.70;;;2.07;;
8466;SDS011;4270;48.148;11.648;2023-07-29T06:05:01;2.70;;;2.20;;
8466;SDS011;4270;48.148;11.648;2023-07-29T06:07:28;2.50;;;2.30;;
8466;SDS011;4270;48.148;11.648;2023-07-29T06:09:55;4.50;;;2.00;;
8466;SDS011;4270;48.148;11.648;2023-07-29T06:12:20;2.13;;;1.87;;
8466;SDS011;4270;48.148;11.648;2023-07-29T06:14:46;2.53;;;1.80;;
8466;SDS011;4270;48.148;11.648;2023-07-29T06:17:11;2.20;;;1.97;;
8466;SDS011;4270;48.148;11.648;2023-07-29T06:19:36;2.37;;;2.00;;
8466;SDS011;4270;48.148;11.648;2023-07-29T06:22:01;4.00;;;2.07;;
8466;SDS011;4270;48.148;11.648;2023-07-29T06:24:27;6.50;;;1.60;;
8466;SDS011;4270;48.148;11.648;2023-07-29T06:26:52;7.73;;;2.10;;
8466;SDS011;4270;48.148;11.648;2023-07-29T06:29:18;3.80;;;2.50;;
8466;SDS011;4270;48.148;11.648;2023-07-29T06:31:43;2.20;;;1.80;;
8466;SDS011;4270;48.148;11.648;2023-07-29T06:34:08;2.90;;;2.10;;
8466;SDS011;4270;48.148;11.648;2023-07-29T06:36:33;6.00;;;2.00;;
8466;SDS011;4270;48.148;11.648;2023-07-29T06:38:58;2.20;;;1.97;;
8466;SDS011;4270;48.148;11.648;2023-07-29T06:41:24;3.23;;;1.77;;
8466;SDS011;4270;48.148;11.648;2023-07-29T06:43:49;1.83;;;1.70;;
8466;SDS011;4270;48.148;11.648;2023-07-29T06:46:14;2.13;;;1.80;;
8466;SDS011;4270;48.148;11.648;2023-07-29T06:48:39;2.20;;;2.00;;
8466;SDS011;4270;48.148;11.648;2023-07-29T06:51:04;2.50;;;2.00;;
8466;SDS011;4270;48.148;11.648;2023-07-29T06:53:30;2.20;;;1.80;;
8466;SDS011;4270;48.148;11.648;2023-07-29T06:55:55;2.03;;;1.90;;
8466;SDS011;4270;48.148;11.648;2023-07-29T06:58:21;2.47;;;1.40;;
8466;SDS011;4270;48.148;11.648;2023-07-29T07:00:46;5.10;;;1.70;;
8466;SDS011;4270;48.148;11.648;2023-07-29T07:03:11;2.57;;;1.60;;
8466;SDS011;4270;48.148;11.648;2023-07-29T07:05:36;8.10;;;2.43;;
8466;SDS011;4270;48.148;11.648;2023-07-29T07:08:02;3.57;;;1.97;;
8466;SDS011;4270;48.148;11.648;2023-07-29T07:10:27;4.80;;;2.83;;
8466;SDS011;4270;48.148;11.648;2023-07-29T07:12:52;5.47;;;2.97;;
8466;SDS011;4270;48.148;11.648;2023-07-29T07:15:17;3.93;;;2.50;;
8466;SDS011;4270;48.148;11.648;2023-07-29T07:17:43;4.17;;;2.60;;
8466;SDS011;4270;48.148;11.648;2023-07-29T07:20:08;3.80;;;2.63;;
8466;SDS011;4270;48.148;11.648;2023-07-29T07:22:33;3.23;;;2.50;;
8466;SDS011;4270;48.148;11.648;2023-07-29T07:24:59;3.10;;;2.50;;
8466;SDS011;4270;48.148;11.648;2023-07-29T07:27:24;2.87;;;2.40;;
8466;SDS011;4270;48.148;11.648;2023-07-29T07:29:49;3.10;;;2.33;;
8466;SDS011;4270;48.148;11.648;2023-07-29T07:32:15;5.27;;;2.30;;
8466;SDS011;4270;48.148;11.648;2023-07-29T07:34:40;4.87;;;2.60;;
8466;SDS011;4270;48.148;11.648;2023-07-29T07:37:05;2.47;;;2.00;;
8466;SDS011;4270;48.148;11.648;2023-07-29T07:39:31;4.10;;;2.27;;
8466;SDS011;4270;48.148;11.648;2023-07-29T07:41:56;4.57;;;2.60;;
8466;SDS011;4270;48.148;11.648;2023-07-29T07:44:21;5.97;;;3.30;;
8466;SDS011;4270;48.148;11.648;2023-07-29T07:46:47;3.20;;;2.47;;
8466;SDS011;4270;48.148;11.648;2023-07-29T07:49:12;5.67;;;2.70;;
8466;SDS011;4270;48.148;11.648;2023-07-29T07:51:40;4.20;;;2.50;;
8466;SDS011;4270;48.148;11.648;2023-07-29T07:54:05;4.80;;;2.80;;
8466;SDS011;4270;48.148;11.648;2023-07-29T07:56:31;3.50;;;2.80;;
8466;SDS011;4270;48.148;11.648;2023-07-29T07:58:56;5.03;;;2.47;;
8466;SDS011;4270;48.148;11.648;2023-07-29T08:01:21;3.33;;;2.50;;
8466;SDS011;4270;48.148;11.648;2023-07-29T08:03:47;5.70;;;2.80;;
8466;SDS011;4270;48.148;11.648;2023-07-29T08:06:12;2.90;;;2.63;;
8466;SDS011;4270;48.148;11.648;2023-07-29T08:08:37;4.50;;;3.00;;
8466;SDS011;4270;48.148;11.648;2023-07-29T08:11:02;3.97;;;2.53;;
8466;SDS011;4270;48.148;11.648;2023-07-29T08:13:28;3.20;;;2.50;;
8466;SDS011;4270;48.148;11.648;2023-07-29T08:15:53;3.40;;;2.97;;
8466;SDS011;4270;48.148;11.648;2023-07-29T08:18:18;4.03;;;3.07;;
8466;SDS011;4270;48.148;11.648;2023-07-29T08:20:57;2.60;;;2.40;;
8466;SDS011;4270;48.148;11.648;2023-07-29T08:23:32;5.90;;;2.87;;
8466;SDS011;4270;48.148;11.648;2023-07-29T08:25:58;3.40;;;2.80;;
8466;SDS011;4270;48.148;11.648;2023-07-29T08:28:37;3.17;;;2.67;;
8466;SDS011;4270;48.148;11.648;2023-07-29T08:31:02;3.40;;;2.80;;
8466;SDS011;4270;48.148;11.648;2023-07-29T08:33:28;4.00;;;2.90;;
8466;SDS011;4270;48.148;11.648;2023-07-29T08:35:53;4.00;;;2.70;;
8466;SDS011;4270;48.148;11.648;2023-07-29T08:38:18;4.07;;;3.13;;
8466;SDS011;4270;48.148;11.648;2023-07-29T08:41:14;3.10;;;2.80;;
8466;SDS011;4270;48.148;11.648;2023-07-29T08:44:04;3.33;;;2.83;;
8466;SDS011;4270;48.148;11.648;2023-07-29T08:46:26;4.93;;;3.30;;
8466;SDS011;4270;48.148;11.648;2023-07-29T08:48:53;3.20;;;2.90;;
8466;SDS011;4270;48.148;11.648;2023-07-29T08:51:19;3.90;;;3.40;;
8466;SDS011;4270;48.148;11.648;2023-07-29T08:53:44;3.47;;;2.90;;
8466;SDS011;4270;48.148;11.648;2023-07-29T08:56:10;3.63;;;3.17;;
8466;SDS011;4270;48.148;11.648;2023-07-29T08:58:35;4.40;;;3.10;;
8466;SDS011;4270;48.148;11.648;2023-07-29T09:01:01;3.00;;;2.70;;
8466;SDS011;4270;48.148;11.648;2023-07-29T09:03:26;3.50;;;2.60;;
8466;SDS011;4270;48.148;11.648;2023-07-29T09:05:52;3.70;;;2.80;;
8466;SDS011;4270;48.148;11.648;2023-07-29T09:08:17;4.20;;;3.23;;
8466;SDS011;4270;48.148;11.648;2023-07-29T09:10:43;4.20;;;2.73;;
8466;SDS011;4270;48.148;11.648;2023-07-29T09:13:08;3.10;;;2.90;;
8466;SDS011;4270;48.148;11.648;2023-07-29T09:15:34;3.53;;;2.63;;
8466;SDS011;4270;48.148;11.648;2023-07-29T09:18:08;3.57;;;2.80;;
8466;SDS011;4270;48.148;11.648;2023-07-29T09:20:33;7.40;;;2.70;;
8466;SDS011;4270;48.148;11.648;2023-07-29T09:22:59;3.20;;;2.90;;
8466;SDS011;4270;48.148;11.648;2023-07-29T09:25:28;5.00;;;3.27;;
8466;SDS011;4270;48.148;11.648;2023-07-29T09:28:00;3.00;;;2.73;;
8466;SDS011;4270;48.148;11.648;2023-07-29T09:30:25;2.90;;;2.63;;
8466;SDS011;4270;48.148;11.648;2023-07-29T09:32:57;2.92;;;2.60;;
8466;SDS011;4270;48.148;11.648;2023-07-29T09:35:23;3.30;;;2.90;;
8466;SDS011;4270;48.148;11.648;2023-07-29T09:37:50;3.08;;;2.75;;
8466;SDS011;4270;48.148;11.648;2023-07-29T09:40:17;2.72;;;2.53;;
8466;SDS011;4270;48.148;11.648;2023-07-29T09:42:52;3.22;;;2.92;;
8466;SDS011;4270;48.148;11.648;2023-07-29T09:47:46;2.97;;;2.72;;
8466;SDS011;4270;48.148;11.648;2023-07-29T09:50:11;2.72;;;2.53;;
8466;SDS011;4270;48.148;11.648;2023-07-29T09:52:36;2.85;;;2.65;;
8466;SDS011;4270;48.148;11.648;2023-07-29T09:55:02;2.95;;;2.75;;
8466;SDS011;4270;48.148;11.648;2023-07-29T09:57:27;2.92;;;2.72;;
8466;SDS011;4270;48.148;11.648;2023-07-29T09:59:56;3.20;;;2.90;;
8466;SDS011;4270;48.148;11.648;2023-07-29T10:02:21;3.55;;;3.25;;
8466;SDS011;4270;48.148;11.648;2023-07-29T10:04:47;3.47;;;3.17;;
8466;SDS011;4270;48.148;11.648;2023-07-29T10:07:12;4.10;;;3.70;;
8466;SDS011;4270;48.148;11.648;2023-07-29T10:09:39;3.53;;;2.70;;
8466;SDS011;4270;48.148;11.648;2023-07-29T10:12:05;4.63;;;2.97;;
8466;SDS011;4270;48.148;11.648;2023-07-29T10:14:31;3.13;;;2.93;;
8466;SDS011;4270;48.148;11.648;2023-07-29T10:16:59;3.20;;;3.00;;
8466;SDS011;4270;48.148;11.648;2023-07-29T10:19:25;3.40;;;2.90;;
8466;SDS011;4270;48.148;11.648;2023-07-29T10:21:53;3.30;;;3.00;;
8466;SDS011;4270;48.148;11.648;2023-07-29T10:24:22;3.55;;;3.00;;
8466;SDS011;4270;48.148;11.648;2023-07-29T10:26:53;3.42;;;2.80;;
8466;SDS011;4270;48.148;11.648;2023-07-29T10:29:20;3.45;;;3.15;;
8466;SDS011;4270;48.148;11.648;2023-07-29T10:31:46;4.50;;;3.50;;
8466;SDS011;4270;48.148;11.648;2023-07-29T10:34:12;3.45;;;3.13;;
8466;SDS011;4270;48.148;11.648;2023-07-29T10:36:38;3.13;;;2.92;;
8466;SDS011;4270;48.148;11.648;2023-07-29T10:39:05;3.08;;;2.85;;
8466;SDS011;4270;48.148;11.648;2023-07-29T10:46:59;3.33;;;3.03;;
8466;SDS011;4270;48.148;11.648;2023-07-29T10:49:24;3.30;;;3.00;;
8466;SDS011;4270;48.148;11.648;2023-07-29T10:51:56;6.40;;;3.37;;
8466;SDS011;4270;48.148;11.648;2023-07-29T10:54:22;3.00;;;2.77;;
8466;SDS011;4270;48.148;11.648;2023-07-29T10:56:48;3.10;;;2.80;;
8466;SDS011;4270;48.148;11.648;2023-07-29T11:01:43;3.83;;;3.43;;
8466;SDS011;4270;48.148;11.648;2023-07-29T11:07:01;3.73;;;3.43;;
8466;SDS011;4270;48.148;11.648;2023-07-29T11:14:57;3.60;;;3.30;;
8466;SDS011;4270;48.148;11.648;2023-07-29T11:17:22;3.63;;;2.90;;
8466;SDS011;4270;48.148;11.648;2023-07-29T11:19:48;4.10;;;3.60;;
8466;SDS011;4270;48.148;11.648;2023-07-29T11:22:14;2.83;;;2.63;;
8466;SDS011;4270;48.148;11.648;2023-07-29T11:24:43;1.80;;;1.57;;
8466;SDS011;4270;48.148;11.648;2023-07-29T11:27:12;2.63;;;1.80;;
8466;SDS011;4270;48.148;11.648;2023-07-29T11:29:37;2.17;;;1.60;;
8466;SDS011;4270;48.148;11.648;2023-07-29T11:32:02;1.80;;;1.67;;
8466;SDS011;4270;48.148;11.648;2023-07-29T11:34:34;1.97;;;1.77;;
8466;SDS011;4270;48.148;11.648;2023-07-29T11:36:59;2.50;;;2.00;;
8466;SDS011;4270;48.148;11.648;2023-07-29T11:39:25;2.10;;;1.90;;
8466;SDS011;4270;48.148;11.648;2023-07-29T11:41:50;2.00;;;1.80;;
8466;SDS011;4270;48.148;11.648;2023-07-29T11:44:18;3.13;;;2.83;;
8466;SDS011;4270;48.148;11.648;2023-07-29T11:46:43;2.60;;;1.90;;
8466;SDS011;4270;48.148;11.648;2023-07-29T11:49:09;4.20;;;2.30;;
8466;SDS011;4270;48.148;11.648;2023-07-29T11:51:34;2.37;;;2.17;;
8466;SDS011;4270;48.148;11.648;2023-07-29T11:53:59;4.27;;;2.20;;
8466;SDS011;4270;48.148;11.648;2023-07-29T11:56:25;2.37;;;2.17;;
8466;SDS011;4270;48.148;11.648;2023-07-29T11:58:50;3.60;;;2.20;;
8466;SDS011;4270;48.148;11.648;2023-07-29T12:01:15;2.63;;;2.23;;
8466;SDS011;4270;48.148;11.648;2023-07-29T12:03:41;2.53;;;2.33;;
8466;SDS011;4270;48.148;11.648;2023-07-29T12:06:07;5.90;;;2.77;;
8466;SDS011;4270;48.148;11.648;2023-07-29T12:08:32;3.33;;;2.83;;
8466;SDS011;4270;48.148;11.648;2023-07-29T12:10:57;2.60;;;2.40;;
8466;SDS011;4270;48.148;11.648;2023-07-29T12:13:26;3.80;;;2.70;;
8466;SDS011;4270;48.148;11.648;2023-07-29T12:15:51;3.53;;;2.70;;
8466;SDS011;4270;48.148;11.648;2023-07-29T12:18:16;2.80;;;2.27;;
8466;SDS011;4270;48.148;11.648;2023-07-29T12:20:42;3.07;;;2.77;;
8466;SDS011;4270;48.148;11.648;2023-07-29T12:23:07;4.03;;;2.60;;
8466;SDS011;4270;48.148;11.648;2023-07-29T12:25:33;3.00;;;2.53;;
8466;SDS011;4270;48.148;11.648;2023-07-29T12:28:03;2.83;;;2.60;;
8466;SDS011;4270;48.148;11.648;2023-07-29T12:30:28;4.43;;;2.77;;
8466;SDS011;4270;48.148;11.648;2023-07-29T12:32:53;2.60;;;2.40;;
8466;SDS011;4270;48.148;11.648;2023-07-29T12:35:18;2.70;;;2.50;;
8466;SDS011;4270;48.148;11.648;2023-07-29T12:37:44;3.63;;;2.73;;
8466;SDS011;4270;48.148;11.648;2023-07-29T12:40:30;3.10;;;2.83;;
8466;SDS011;4270;48.148;11.648;2023-07-29T12:42:55;3.30;;;2.77;;
8466;SDS011;4270;48.148;11.648;2023-07-29T12:45:20;2.90;;;2.57;;
8466;SDS011;4270;48.148;11.648;2023-07-29T12:47:48;3.70;;;2.83;;
8466;SDS011;4270;48.148;11.648;2023-07-29T12:50:13;3.00;;;2.80;;
8466;SDS011;4270;48.148;11.648;2023-07-29T12:52:38;2.93;;;2.70;;
8466;SDS011;4270;48.148;11.648;2023-07-29T12:55:04;3.50;;;2.90;;
8466;SDS011;4270;48.148;11.648;2023-07-29T12:57:29;3.90;;;2.60;;
8466;SDS011;4270;48.148;11.648;2023-07-29T12:59:55;4.60;;;2.87;;
8466;SDS011;4270;48.148;11.648;2023-07-29T13:02:20;6.50;;;3.77;;
8466;SDS011;4270;48.148;11.648;2023-07-29T13:04:45;3.63;;;1.97;;
8466;SDS011;4270;48.148;11.648;2023-07-29T13:07:10;4.17;;;2.00;;
8466;SDS011;4270;48.148;11.648;2023-07-29T13:09:36;3.47;;;2.70;;
8466;SDS011;4270;48.148;11.648;2023-07-29T13:12:01;5.30;;;2.50;;
8466;SDS011;4270;48.148;11.648;2023-07-29T13:14:26;3.03;;;2.50;;
8466;SDS011;4270;48.148;11.648;2023-07-29T13:16:51;2.90;;;2.60;;
8466;SDS011;4270;48.148;11.648;2023-07-29T13:19:18;4.43;;;3.10;;
8466;SDS011;4270;48.148;11.648;2023-07-29T13:21:43;6.00;;;2.90;;
8466;SDS011;4270;48.148;11.648;2023-07-29T13:24:08;3.20;;;2.83;;
8466;SDS011;4270;48.148;11.648;2023-07-29T13:26:34;4.13;;;3.10;;
8466;SDS011;4270;48.148;11.648;2023-07-29T13:28:59;6.73;;;3.00;;
8466;SDS011;4270;48.148;11.648;2023-07-29T13:31:24;4.73;;;3.10;;
8466;SDS011;4270;48.148;11.648;2023-07-29T13:33:50;3.97;;;3.20;;
8466;SDS011;4270;48.148;11.648;2023-07-29T13:36:15;4.73;;;3.80;;
8466;SDS011;4270;48.148;11.648;2023-07-29T13:38:41;4.23;;;3.43;;
8466;SDS011;4270;48.148;11.648;2023-07-29T13:41:06;4.70;;;3.53;;
8466;SDS011;4270;48.148;11.648;2023-07-29T13:43:31;4.73;;;3.60;;
8466;SDS011;4270;48.148;11.648;2023-07-29T13:45:56;3.70;;;3.30;;
8466;SDS011;4270;48.148;11.648;2023-07-29T13:48:22;3.60;;;3.13;;
8466;SDS011;4270;48.148;11.648;2023-07-29T13:50:47;4.50;;;3.70;;
8466;SDS011;4270;48.148;11.648;2023-07-29T13:53:12;6.43;;;4.00;;
8466;SDS011;4270;48.148;11.648;2023-07-29T13:55:37;6.33;;;4.00;;
8466;SDS011;4270;48.148;11.648;2023-07-29T13:58:03;4.07;;;3.33;;
8466;SDS011;4270;48.148;11.648;2023-07-29T14:00:28;8.03;;;4.23;;
8466;SDS011;4270;48.148;11.648;2023-07-29T14:02:53;4.63;;;3.60;;
8466;SDS011;4270;48.148;11.648;2023-07-29T14:05:19;4.40;;;4.00;;
8466;SDS011;4270;48.148;11.648;2023-07-29T14:07:44;7.93;;;4.23;;
8466;SDS011;4270;48.148;11.648;2023-07-29T14:10:09;4.90;;;4.30;;
8466;SDS011;4270;48.148;11.648;2023-07-29T14:12:35;5.17;;;3.60;;
8466;SDS011;4270;48.148;11.648;2023-07-29T14:15:00;4.83;;;3.73;;
8466;SDS011;4270;48.148;11.648;2023-07-29T14:17:25;5.10;;;3.70;;
8466;SDS011;4270;48.148;11.648;2023-07-29T14:19:51;4.40;;;3.40;;
8466;SDS011;4270;48.148;11.648;2023-07-29T14:22:16;4.27;;;2.93;;
8466;SDS011;4270;48.148;11.648;2023-07-29T14:24:41;3.27;;;2.97;;
8466;SDS011;4270;48.148;11.648;2023-07-29T14:27:06;4.23;;;3.60;;
8466;SDS011;4270;48.148;11.648;2023-07-29T14:29:32;3.90;;;3.50;;
8466;SDS011;4270;48.148;11.648;2023-07-29T14:31:57;3.90;;;3.20;;
8466;SDS011;4270;48.148;11.648;2023-07-29T14:34:22;4.43;;;3.80;;
8466;SDS011;4270;48.148;11.648;2023-07-29T14:36:47;4.37;;;3.00;;
8466;SDS011;4270;48.148;11.648;2023-07-29T14:39:13;4.97;;;3.50;;
8466;SDS011;4270;48.148;11.648;2023-07-29T14:41:38;3.77;;;3.47;;
8466;SDS011;4270;48.148;11.648;2023-07-29T14:44:03;4.17;;;3.50;;
8466;SDS011;4270;48.148;11.648;2023-07-29T14:46:28;4.60;;;3.30;;
8466;SDS011;4270;48.148;11.648;2023-07-29T14:48:54;4.33;;;3.67;;
8466;SDS011;4270;48.148;11.648;2023-07-29T14:51:19;4.00;;;3.33;;
8466;SDS011;4270;48.148;11.648;2023-07-29T14:53:44;4.80;;;3.90;;
8466;SDS011;4270;48.148;11.648;2023-07-29T14:56:10;4.47;;;3.73;;
8466;SDS011;4270;48.148;11.648;2023-07-29T14:58:35;5.10;;;3.97;;
8466;SDS011;4270;48.148;11.648;2023-07-29T15:01:00;5.30;;;4.30;;
8466;SDS011;4270;48.148;11.648;2023-07-29T15:03:25;4.03;;;3.30;;
8466;SDS011;4270;48.148;11.648;2023-07-29T15:05:51;5.03;;;3.10;;
8466;SDS011;4270;48.148;11.648;2023-07-29T15:08:16;4.03;;;3.53;;
8466;SDS011;4270;48.148;11.648;2023-07-29T15:10:49;3.50;;;3.10;;
8466;SDS011;4270;48.148;11.648;2023-07-29T15:13:14;3.87;;;3.33;;